Airfield :
LOGIN :

Register | Disclaimer

   EN    FR    IT 

 










Legend :    VFR   Marginal VFR   IFR   Intensive IFR   Very Intensive IFR
Visi :
Ceiling :
>= 8 km
>= 3000ft
5 to 8 km
1000 to 3000 ft
1500m to 5 km
500 to 1000 ft
800 to 1500m
200 to 500 ft
< 800m
< 200 ft
Symbols :   Thunderstorms  Fog  Heavy snow  Heavy precipitations  Wind > 20 kt
SIGMETs :     Misc.  Thunderstorms  Icing  Turbulence  Mountain Waves  Volcanic Ashes






- Airport Elevation : 117 ft
- IATA code : NWI


EGSH - Norwich

CURRENT METAR :
  • 271450Z 31015KT 280V350 9999 SCT027 BKN032 06/00 Q1001 NOSIG

EXPIRED METARs :
  • 271420Z 31014G24KT 270V360 9999 FEW021 SCT026 06/00 Q1000
  • 271350Z 31013KT 280V350 9999 FEW016 SCT025 06/02 Q0999 NOSIG
  • 271320Z 31013G24KT 280V360 9999 FEW014 BKN022 05/02 Q0999
  • 271250Z 31012KT 280V350 9999 FEW006 BKN011 04/02 Q0998 BECMG FEW011 BKN025
  • 271220Z 30011KT 270V350 9999 -RA SCT006 BKN010 04/02 Q0998
  • 271150Z 29009KT 270V340 9999 -RA SCT004 BKN007 04/02 Q0998

TAF TAF EGSH
Valid from the 27 at 15:00 until the 28 at 00:00 UTC


271353Z 2715/2724 30012KT 9999 FEW016 SCT025
PROB30
TEMPO 2715/2721 31015G25KT
ATIS : +44 1603 420 640



MET'MAP, your aeronautical weather chart ! - Copyright ORBIFLY December 2007 - Disclaimer

ORBIFLY MET'MAP TEAM :

Programming & Development : Alexandra Zaïnal
Concept & original design : Baudouin d'Aumeries
Assistance for programming : Marc-Olivier Méhu
Technical & hardware support : Manuel Goepfert

Contact : metmap@orbifly.com




SOURCES & CREDITS :

   NOAA